createdAt,value
2022-08-17T00:09:28.262Z,15.70
2022-08-17T00:19:33.051Z,15.60
2022-08-17T00:29:38.410Z,15.50
2022-08-17T00:39:42.347Z,15.50
2022-08-17T00:49:47.951Z,15.40
2022-08-17T00:59:56.040Z,15.30
2022-08-17T01:10:59.824Z,15.20
2022-08-17T01:20:46.670Z,15.20
2022-08-17T01:30:58.856Z,15.00
2022-08-17T01:41:07.441Z,14.90
2022-08-17T01:51:12.849Z,14.70
2022-08-17T02:01:25.016Z,14.50
2022-08-17T02:11:30.627Z,14.40
2022-08-17T02:21:36.391Z,14.50
2022-08-17T02:31:41.692Z,14.50
2022-08-17T02:41:45.824Z,14.50
2022-08-17T02:51:52.468Z,14.60
2022-08-17T03:01:56.745Z,14.60
2022-08-17T03:12:08.596Z,14.50
2022-08-17T03:22:36.789Z,14.60
2022-08-17T03:32:42.759Z,14.50
2022-08-17T03:42:46.770Z,14.50
2022-08-17T03:53:09.940Z,14.30
2022-08-17T04:03:14.470Z,14.30
2022-08-17T04:13:24.196Z,14.40
2022-08-17T04:23:33.818Z,14.60
2022-08-17T04:33:40.001Z,15.00
2022-08-17T04:43:46.503Z,15.30
2022-08-17T04:53:55.738Z,15.70
2022-08-17T05:04:20.976Z,16.10
2022-08-17T05:14:32.840Z,16.50
2022-08-17T05:24:42.644Z,16.90
2022-08-17T05:35:00.340Z,17.40
2022-08-17T05:45:04.874Z,18.10
2022-08-17T05:55:22.321Z,18.90
2022-08-17T06:05:45.331Z,20.50
2022-08-17T06:16:03.873Z,21.50
2022-08-17T06:26:14.973Z,22.40
2022-08-17T06:36:36.857Z,23.20
2022-08-17T06:46:48.746Z,24.70
2022-08-17T06:57:01.898Z,25.30
2022-08-17T07:07:24.470Z,26.30
2022-08-17T07:17:47.217Z,27.00
2022-08-17T07:27:54.547Z,28.30
2022-08-17T07:38:25.350Z,30.60
2022-08-17T07:48:30.292Z,32.60
2022-08-17T07:58:36.360Z,34.90
2022-08-17T08:08:43.801Z,37.50
2022-08-17T08:18:56.881Z,38.80
2022-08-17T08:29:12.687Z,40.70
2022-08-17T08:39:25.145Z,41.30
2022-08-17T08:50:09.501Z,43.00
2022-08-17T09:00:22.747Z,44.50
2022-08-17T09:10:34.967Z,45.60
2022-08-17T09:20:50.069Z,47.00
2022-08-17T09:31:03.178Z,47.20
2022-08-17T09:41:17.341Z,46.90
2022-08-17T09:51:26.991Z,48.90
2022-08-17T10:01:39.981Z,50.50
2022-08-17T10:12:06.599Z,51.40
2022-08-17T10:22:42.544Z,52.70
2022-08-17T10:32:50.714Z,51.70
2022-08-17T10:43:01.573Z,47.50
2022-08-17T10:53:05.314Z,52.40
2022-08-17T11:03:21.210Z,47.60
2022-08-17T11:13:41.177Z,50.20
2022-08-17T11:24:15.493Z,53.40
2022-08-17T11:34:21.877Z,53.50
2022-08-17T11:44:44.577Z,53.30
2022-08-17T11:54:50.213Z,47.70
2022-08-17T12:05:27.618Z,54.80
2022-08-17T12:15:36.535Z,58.10
2022-08-17T12:25:50.822Z,53.50
2022-08-17T12:36:00.275Z,42.10
2022-08-17T12:46:13.397Z,45.40
2022-08-17T12:56:20.198Z,52.10
2022-08-17T13:06:33.390Z,49.80
2022-08-17T13:16:37.706Z,49.70
2022-08-17T13:26:46.921Z,42.90
2022-08-17T13:36:52.271Z,39.00
2022-08-17T13:46:59.726Z,37.20
2022-08-17T13:57:06.853Z,36.20
2022-08-17T14:07:32.336Z,35.10
2022-08-17T14:17:38.942Z,33.80
2022-08-17T14:27:52.916Z,33.30
2022-08-17T14:37:58.245Z,33.30
2022-08-17T14:48:05.858Z,32.10
2022-08-17T14:58:10.531Z,30.80
2022-08-17T15:08:17.642Z,30.70
2022-08-17T15:18:21.450Z,30.30
2022-08-17T15:28:26.562Z,30.50
2022-08-17T15:38:39.280Z,30.70
2022-08-17T15:48:47.385Z,30.40
2022-08-17T15:58:52.256Z,30.60
2022-08-17T16:08:59.811Z,30.50
2022-08-17T16:19:06.492Z,29.70
2022-08-17T16:29:11.898Z,29.40
2022-08-17T16:39:16.234Z,28.90
2022-08-17T16:49:36.355Z,28.00
2022-08-17T16:59:44.924Z,27.10
2022-08-17T17:09:55.634Z,26.20
2022-08-17T17:20:08.549Z,25.50
2022-08-17T17:30:18.476Z,25.00
2022-08-17T17:40:27.097Z,24.50
2022-08-17T17:50:41.623Z,23.90
2022-08-17T18:00:55.780Z,23.30
2022-08-17T18:11:09.731Z,22.80
2022-08-17T18:21:19.482Z,22.30
2022-08-17T18:31:24.694Z,21.70
2022-08-17T18:41:30.622Z,21.30
2022-08-17T18:51:43.320Z,20.90
2022-08-17T19:02:11.625Z,20.60
2022-08-17T19:12:31.204Z,20.30
2022-08-17T19:22:49.713Z,20.10
2022-08-17T19:32:57.156Z,19.90
2022-08-17T19:43:08.557Z,19.80
2022-08-17T19:53:36.711Z,19.50
2022-08-17T20:03:58.669Z,19.20
2022-08-17T20:14:09.481Z,18.90
2022-08-17T20:24:27.494Z,18.80
2022-08-17T20:34:38.072Z,18.60
2022-08-17T20:44:44.199Z,18.40
2022-08-17T20:54:52.929Z,18.20
2022-08-17T21:05:09.186Z,18.10
2022-08-17T21:15:32.238Z,17.90
2022-08-17T21:26:11.327Z,17.80
2022-08-17T21:36:28.243Z,17.70
2022-08-17T21:46:37.134Z,17.70
2022-08-17T21:56:48.022Z,17.60
2022-08-17T22:06:57.667Z,17.50
2022-08-17T22:17:18.895Z,17.40
2022-08-17T22:27:22.766Z,17.30
2022-08-17T22:37:31.089Z,17.30
2022-08-17T22:47:43.245Z,17.10
2022-08-17T22:58:06.976Z,17.00
2022-08-17T23:08:12.996Z,16.90
2022-08-17T23:18:18.345Z,16.70
2022-08-17T23:28:22.435Z,16.60
2022-08-17T23:38:28.505Z,16.50
2022-08-17T23:48:35.722Z,16.30
2022-08-17T23:58:44.947Z,16.10
